Time;durP1;ratioP1;P1;durP2;ratioP2;P2;SDS_P1;SDS_P2;PMS_P1;PMS_P2;Temp;Humidity;BMP_temperature;BMP_pressure;BME280_temperature;BME280_humidity;BME280_pressure;Samples;Min_cycle;Max_cycle;Signal;HPM_P1;HPM_P2
2024/02/20 00:02:25;;;;;;;8.25;3.22;;;9.20;99.90;;;;;;5033442;28;20232;-73
2024/02/20 00:04:52;;;;;;;8.20;3.80;;;9.20;99.90;;;;;;5035813;28;20232;-75
2024/02/20 00:07:19;;;;;;;13.38;4.50;;;9.10;99.90;;;;;;5034408;28;20200;-75
2024/02/20 00:09:47;;;;;;;11.80;4.70;;;9.20;99.90;;;;;;5035817;28;20204;-75
2024/02/20 00:12:32;;;;;;;11.77;4.45;;;9.20;99.90;;;;;;5034508;28;20201;-74
2024/02/20 00:15:02;;;;;;;16.73;4.10;;;9.20;99.90;;;;;;5033657;28;20274;-74
2024/02/20 00:17:29;;;;;;;7.80;3.03;;;9.20;99.90;;;;;;5027848;28;20243;-73
2024/02/20 00:19:56;;;;;;;13.43;3.90;;;9.10;99.90;;;;;;5032756;28;20201;-72
2024/02/20 00:22:23;;;;;;;18.27;4.20;;;9.10;99.90;;;;;;5037174;28;20271;-75
2024/02/20 00:24:50;;;;;;;12.73;5.35;;;9.10;99.90;;;;;;5035400;28;20646;-73
2024/02/20 00:27:17;;;;;;;11.80;4.10;;;9.10;99.90;;;;;;5034890;28;20647;-73
2024/02/20 00:29:44;;;;;;;12.98;3.90;;;9.00;99.90;;;;;;5032140;28;20236;-73
2024/02/20 00:32:13;;;;;;;13.05;4.90;;;9.00;99.90;;;;;;5036630;28;20327;-73
2024/02/20 00:34:39;;;;;;;13.90;3.92;;;9.00;99.90;;;;;;5035624;28;20263;-74
2024/02/20 00:37:06;;;;;;;14.68;4.32;;;9.00;99.90;;;;;;5033982;28;20204;-73
2024/02/20 00:39:34;;;;;;;15.00;4.88;;;9.00;99.90;;;;;;5033528;28;20201;-74
2024/02/20 00:42:02;;;;;;;16.70;4.70;;;9.00;99.90;;;;;;5034596;28;20250;-75
2024/02/20 00:44:29;;;;;;;14.05;3.78;;;9.00;99.90;;;;;;5023872;28;20230;-74
2024/02/20 00:46:55;;;;;;;17.60;3.85;;;9.00;99.90;;;;;;5038177;28;20919;-74
2024/02/20 00:49:24;;;;;;;19.35;5.05;;;9.10;99.90;;;;;;5035486;28;20314;-74
2024/02/20 00:51:51;;;;;;;22.85;7.10;;;9.10;99.90;;;;;;5034572;28;20209;-74
2024/02/20 00:54:18;;;;;;;19.10;4.70;;;9.00;99.90;;;;;;5034738;28;20225;-75
2024/02/20 00:56:45;;;;;;;15.52;5.88;;;9.00;99.90;;;;;;5037701;28;20201;-74
2024/02/20 00:59:12;;;;;;;14.93;4.65;;;9.00;99.90;;;;;;5039931;28;20251;-74
2024/02/20 01:01:39;;;;;;;12.50;4.65;;;9.00;99.90;;;;;;5036276;28;20732;-74
2024/02/20 01:04:06;;;;;;;20.20;4.30;;;9.10;99.90;;;;;;5039960;28;20228;-74
2024/02/20 01:06:36;;;;;;;33.63;3.72;;;9.10;99.90;;;;;;5038519;28;20205;-74
2024/02/20 01:09:04;;;;;;;22.88;3.97;;;9.10;99.90;;;;;;5046328;28;20235;-74
2024/02/20 01:11:32;;;;;;;18.42;4.72;;;9.10;99.90;;;;;;5049767;28;20237;-75
2024/02/20 01:14:00;;;;;;;12.48;5.03;;;9.10;99.90;;;;;;5054192;28;20288;-74
2024/02/20 01:16:28;;;;;;;27.25;5.65;;;9.10;99.90;;;;;;5046832;28;20255;-74
2024/02/20 01:18:55;;;;;;;16.88;6.53;;;9.10;99.90;;;;;;5039453;28;20630;-74
2024/02/20 01:21:22;;;;;;;17.45;3.28;;;9.00;99.90;;;;;;5035896;28;20266;-74
2024/02/20 01:23:50;;;;;;;11.88;4.75;;;9.00;99.90;;;;;;5044117;28;20725;-72
2024/02/20 01:26:17;;;;;;;13.63;4.15;;;9.00;99.90;;;;;;5037150;28;20324;-73
2024/02/20 01:28:44;;;;;;;18.92;3.47;;;8.90;99.90;;;;;;5035140;28;20207;-75
2024/02/20 01:31:16;;;;;;;28.50;5.00;;;8.90;99.90;;;;;;5034180;28;20254;-73
2024/02/20 01:33:43;;;;;;;19.80;4.60;;;8.90;99.90;;;;;;5031393;28;20225;-74
2024/02/20 01:36:10;;;;;;;12.55;4.32;;;8.90;99.90;;;;;;5032109;28;20682;-74
2024/02/20 01:38:37;;;;;;;19.08;5.10;;;8.90;99.90;;;;;;5034043;28;20205;-72
2024/02/20 01:41:05;;;;;;;16.90;4.45;;;8.90;99.90;;;;;;5028123;28;20668;-74
2024/02/20 01:43:34;;;;;;;16.52;5.70;;;8.90;99.90;;;;;;5032727;28;20278;-74
2024/02/20 01:46:01;;;;;;;21.60;4.95;;;8.90;99.90;;;;;;5033831;28;20231;-74
2024/02/20 01:48:28;;;;;;;24.00;5.50;;;8.90;99.90;;;;;;5032086;28;20676;-73
2024/02/20 01:50:55;;;;;;;24.58;5.30;;;8.90;99.90;;;;;;5033245;28;20209;-74
2024/02/20 01:53:22;;;;;;;17.38;5.38;;;8.90;99.90;;;;;;5027602;28;20616;-75
2024/02/20 01:55:50;;;;;;;21.70;5.18;;;8.90;99.90;;;;;;5041400;28;20315;-72
2024/02/20 01:58:19;;;;;;;21.25;4.82;;;8.90;99.90;;;;;;5034181;28;20208;-75
2024/02/20 02:00:46;;;;;;;21.77;5.90;;;8.90;99.90;;;;;;5032943;28;20201;-75
2024/02/20 02:03:13;;;;;;;21.80;5.22;;;9.00;99.90;;;;;;5020495;28;20271;-73
2024/02/20 02:05:40;;;;;;;33.63;6.30;;;9.00;99.90;;;;;;5036262;28;20744;-74
2024/02/20 02:08:14;;;;;;;30.92;6.38;;;9.00;99.90;;;;;;5038410;28;20208;-73
2024/02/20 02:10:41;;;;;;;21.63;6.05;;;9.00;99.90;;;;;;5022611;28;20205;-74
2024/02/20 02:13:08;;;;;;;31.05;6.25;;;9.00;99.90;;;;;;5034609;28;20666;-74
2024/02/20 02:15:37;;;;;;;19.15;4.82;;;9.00;99.90;;;;;;5038646;28;20204;-73
2024/02/20 02:18:04;;;;;;;27.20;4.78;;;9.00;99.90;;;;;;5033197;28;20227;-73
2024/02/20 02:20:31;;;;;;;22.58;5.75;;;9.00;99.90;;;;;;5032994;28;20706;-75
2024/02/20 02:22:58;;;;;;;24.23;6.10;;;9.10;99.90;;;;;;5028309;28;20290;-72
2024/02/20 02:25:26;;;;;;;26.38;5.97;;;9.00;99.90;;;;;;5036468;28;20225;-75
2024/02/20 02:27:54;;;;;;;26.88;4.97;;;9.00;99.90;;;;;;5026604;28;20244;-75
2024/02/20 02:30:23;;;;;;;29.08;7.20;;;9.00;99.90;;;;;;5028042;28;20199;-74
2024/02/20 02:32:50;;;;;;;29.08;8.57;;;9.00;99.90;;;;;;5032441;28;20260;-74
2024/02/20 02:35:18;;;;;;;37.67;8.20;;;9.00;99.90;;;;;;5033029;28;20279;-74
2024/02/20 02:37:45;;;;;;;28.35;7.80;;;9.00;99.90;;;;;;5032086;28;20246;-73
2024/02/20 02:40:13;;;;;;;36.78;8.95;;;9.00;99.90;;;;;;5034057;28;20201;-73
2024/02/20 02:42:40;;;;;;;23.10;6.50;;;8.90;99.90;;;;;;5018860;28;20766;-74
2024/02/20 02:45:09;;;;;;;35.55;7.00;;;8.80;99.90;;;;;;5033708;28;20220;-73
2024/02/20 02:47:36;;;;;;;24.30;6.65;;;8.90;99.90;;;;;;5033933;28;20602;-75
2024/02/20 02:50:03;;;;;;;23.65;6.72;;;8.90;99.90;;;;;;5032200;28;20306;-74
2024/02/20 02:52:41;;;;;;;23.40;5.70;;;8.90;99.90;;;;;;5032876;28;20221;-74
2024/02/20 02:55:09;;;;;;;33.08;7.35;;;8.90;99.90;;;;;;5030591;28;20201;-73
2024/02/20 02:57:36;;;;;;;30.92;7.65;;;8.90;99.90;;;;;;5030432;28;20207;-73
2024/02/20 03:00:09;;;;;;;29.98;6.60;;;8.90;99.90;;;;;;5033842;28;20208;-74
2024/02/20 03:02:38;;;;;;;36.63;6.22;;;8.90;99.90;;;;;;5033007;28;20263;-75
2024/02/20 03:05:06;;;;;;;30.23;6.72;;;8.90;99.90;;;;;;5033621;28;20229;-74
2024/02/20 03:07:34;;;;;;;21.05;6.50;;;8.90;99.90;;;;;;5029992;28;20588;-75
2024/02/20 03:10:01;;;;;;;28.90;8.35;;;8.90;99.90;;;;;;5030140;28;20197;-75
2024/02/20 03:12:28;;;;;;;30.20;8.70;;;9.00;99.90;;;;;;5024922;28;20243;-72
2024/02/20 03:15:01;;;;;;;31.77;6.47;;;9.00;99.90;;;;;;5028014;28;20251;-74
2024/02/20 03:17:28;;;;;;;25.33;7.38;;;9.00;99.90;;;;;;5029416;28;20246;-76
2024/02/20 03:19:57;;;;;;;38.80;7.68;;;9.00;99.90;;;;;;5031412;28;20228;-75
2024/02/20 03:22:24;;;;;;;27.45;7.05;;;9.00;99.90;;;;;;5032128;28;20228;-76
2024/02/20 03:24:52;;;;;;;44.38;8.65;;;9.00;99.90;;;;;;5025276;28;20548;-73
2024/02/20 03:27:19;;;;;;;32.97;7.97;;;8.90;99.90;;;;;;5032825;28;20201;-71
2024/02/20 03:29:46;;;;;;;30.50;6.70;;;8.90;99.90;;;;;;5032853;28;20244;-73
2024/02/20 03:32:13;;;;;;;28.15;8.00;;;8.90;99.90;;;;;;5031440;28;20287;-73
2024/02/20 03:34:40;;;;;;;32.05;7.78;;;8.90;99.90;;;;;;5027358;28;20208;-76
2024/02/20 03:37:08;;;;;;;22.50;7.15;;;8.90;99.90;;;;;;5029626;28;20223;-72
2024/02/20 03:39:36;;;;;;;28.63;7.13;;;8.90;99.90;;;;;;5036576;28;20200;-75
2024/02/20 03:42:03;;;;;;;25.23;5.55;;;8.90;99.90;;;;;;5035860;28;20224;-73
2024/02/20 03:44:29;;;;;;;40.92;8.02;;;8.90;99.90;;;;;;5036633;28;20208;-75
2024/02/20 03:46:57;;;;;;;29.45;6.97;;;8.90;99.90;;;;;;5035471;28;20197;-76
2024/02/20 03:49:23;;;;;;;39.55;8.00;;;9.00;99.90;;;;;;5036586;28;20236;-75
2024/02/20 03:51:50;;;;;;;31.40;6.35;;;8.90;99.90;;;;;;5036299;28;20266;-75
2024/02/20 03:54:19;;;;;;;38.38;7.05;;;8.90;99.90;;;;;;5026713;28;20279;-74
2024/02/20 03:56:46;;;;;;;25.98;7.90;;;8.90;99.90;;;;;;5040719;28;20201;-72
2024/02/20 03:59:13;;;;;;;51.03;9.70;;;8.90;99.90;;;;;;5044951;28;20204;-72
2024/02/20 04:01:40;;;;;;;41.38;8.40;;;8.90;99.90;;;;;;5056591;28;20200;-73
2024/02/20 04:04:09;;;;;;;27.23;6.70;;;8.90;99.90;;;;;;5057681;28;20256;-74
2024/02/20 04:06:36;;;;;;;35.95;9.45;;;8.90;99.90;;;;;;5053468;28;20217;-72
2024/02/20 04:09:04;;;;;;;39.30;8.93;;;8.80;99.90;;;;;;5039703;28;20243;-74
2024/02/20 04:11:32;;;;;;;32.25;6.65;;;8.80;99.90;;;;;;5031874;28;20266;-73
2024/02/20 04:13:59;;;;;;;27.77;7.13;;;8.80;99.90;;;;;;5040470;28;20270;-74
2024/02/20 04:16:27;;;;;;;39.85;7.18;;;8.80;99.90;;;;;;5034565;28;20201;-72
2024/02/20 04:18:53;;;;;;;33.78;9.57;;;8.80;99.90;;;;;;5036074;28;20671;-75
2024/02/20 04:21:21;;;;;;;31.70;7.30;;;8.80;99.90;;;;;;5036381;28;20576;-73
2024/02/20 04:23:48;;;;;;;20.15;5.80;;;8.80;99.90;;;;;;5036008;28;20259;-73
2024/02/20 04:26:15;;;;;;;34.97;7.70;;;8.80;99.90;;;;;;5034860;28;20637;-72
2024/02/20 04:28:44;;;;;;;30.85;7.68;;;8.80;99.90;;;;;;5035890;28;20225;-75
2024/02/20 04:31:11;;;;;;;37.08;8.25;;;8.80;99.90;;;;;;5033708;28;20212;-73
2024/02/20 04:33:38;;;;;;;42.75;8.85;;;8.80;99.90;;;;;;5035364;28;20682;-73
2024/02/20 04:36:06;;;;;;;40.35;10.65;;;8.80;99.90;;;;;;5035550;28;20228;-74
2024/02/20 04:38:33;;;;;;;36.72;7.88;;;8.80;99.90;;;;;;5035496;28;20531;-73
2024/02/20 04:41:00;;;;;;;21.60;7.15;;;8.90;99.90;;;;;;5034443;28;20263;-73
2024/02/20 04:43:27;;;;;;;33.33;8.13;;;8.90;99.90;;;;;;5035378;28;20355;-75
2024/02/20 04:45:56;;;;;;;31.33;8.32;;;8.90;99.90;;;;;;5034995;28;20228;-75
2024/02/20 04:48:23;;;;;;;21.20;6.53;;;8.80;99.90;;;;;;5034100;28;20201;-73
2024/02/20 04:50:50;;;;;;;30.95;7.18;;;8.80;99.90;;;;;;5033939;28;20232;-73
2024/02/20 04:53:17;;;;;;;44.00;7.57;;;8.80;99.90;;;;;;5033389;28;20302;-73
2024/02/20 04:55:44;;;;;;;42.70;9.35;;;8.80;99.90;;;;;;5034807;28;20204;-75
2024/02/20 04:58:11;;;;;;;37.78;7.53;;;8.80;99.90;;;;;;5037492;28;20254;-74
2024/02/20 05:00:38;;;;;;;40.78;9.88;;;8.80;99.90;;;;;;5041555;28;20251;-73
2024/02/20 05:03:06;;;;;;;35.78;8.70;;;8.80;99.90;;;;;;5031367;28;20283;-72
2024/02/20 05:05:35;;;;;;;36.47;8.15;;;8.80;99.90;;;;;;5035057;28;20212;-74
2024/02/20 05:08:04;;;;;;;30.25;7.47;;;8.80;99.90;;;;;;5032982;28;20725;-74
2024/02/20 05:10:31;;;;;;;28.88;7.80;;;8.70;99.90;;;;;;5035012;28;20200;-73
2024/02/20 05:12:58;;;;;;;30.10;7.78;;;8.60;99.90;;;;;;5033192;28;20568;-72
2024/02/20 05:15:25;;;;;;;47.65;7.93;;;8.60;99.90;;;;;;5026339;28;20200;-75
2024/02/20 05:17:52;;;;;;;33.35;8.70;;;8.60;99.90;;;;;;5035160;28;20208;-75
2024/02/20 05:20:22;;;;;;;45.10;9.27;;;8.60;99.90;;;;;;5036220;28;20651;-74
2024/02/20 05:22:49;;;;;;;39.08;9.38;;;8.60;99.90;;;;;;5038128;28;20225;-75
2024/02/20 05:25:16;;;;;;;29.23;9.55;;;8.60;99.90;;;;;;5036682;28;20196;-72
2024/02/20 05:27:43;;;;;;;38.88;9.93;;;8.60;99.90;;;;;;5033096;28;20245;-74
2024/02/20 05:30:12;;;;;;;48.30;11.70;;;8.50;99.90;;;;;;5034148;28;20255;-73
2024/02/20 05:32:39;;;;;;;32.03;9.98;;;8.50;99.90;;;;;;5033652;28;20228;-75
2024/02/20 05:35:08;;;;;;;35.05;8.80;;;8.50;99.90;;;;;;5034344;28;20205;-71
2024/02/20 05:37:36;;;;;;;32.88;8.27;;;8.60;99.90;;;;;;5034073;28;20663;-74
2024/02/20 05:40:04;;;;;;;39.47;11.18;;;8.50;99.90;;;;;;5034910;28;20209;-74
2024/02/20 05:42:31;;;;;;;31.95;10.55;;;8.40;99.90;;;;;;5041892;28;20224;-71
2024/02/20 05:44:58;;;;;;;46.67;10.65;;;8.40;99.90;;;;;;5038897;28;20205;-76
2024/02/20 05:47:25;;;;;;;46.90;9.80;;;8.40;99.90;;;;;;5031104;28;20647;-72
2024/02/20 05:49:52;;;;;;;46.03;11.02;;;8.30;99.90;;;;;;5034374;28;20213;-72
2024/02/20 05:52:20;;;;;;;50.42;9.00;;;8.20;99.90;;;;;;5033511;28;20216;-74
2024/02/20 05:54:49;;;;;;;38.97;10.13;;;8.20;99.90;;;;;;5034371;28;20207;-74
2024/02/20 05:57:16;;;;;;;45.10;12.20;;;8.30;99.90;;;;;;5038063;28;20193;-74
2024/02/20 05:59:43;;;;;;;41.65;11.15;;;8.20;99.90;;;;;;5034007;28;20259;-73
2024/02/20 06:02:10;;;;;;;43.53;10.27;;;8.20;99.90;;;;;;5031031;28;20208;-73
2024/02/20 06:04:39;;;;;;;42.03;9.20;;;8.20;99.90;;;;;;5036752;28;20255;-75
2024/02/20 06:07:06;;;;;;;29.40;7.93;;;8.30;99.90;;;;;;5031014;28;20714;-75
2024/02/20 06:09:33;;;;;;;36.78;10.02;;;8.20;99.90;;;;;;5034286;28;20200;-74
2024/02/20 06:12:01;;;;;;;32.67;10.73;;;8.10;99.90;;;;;;5021984;28;20292;-75
2024/02/20 06:14:28;;;;;;;38.38;8.77;;;8.10;99.90;;;;;;5029216;28;20228;-73
2024/02/20 06:16:55;;;;;;;36.40;9.30;;;8.00;99.90;;;;;;5032233;28;20198;-73
2024/02/20 06:19:23;;;;;;;30.35;10.05;;;8.00;99.90;;;;;;5034407;28;20212;-72
2024/02/20 06:21:50;;;;;;;30.33;8.50;;;8.00;99.90;;;;;;5032638;28;20271;-72
2024/02/20 06:24:17;;;;;;;36.03;8.65;;;8.00;99.90;;;;;;5028705;28;20220;-73
2024/02/20 06:26:44;;;;;;;44.80;10.50;;;8.00;99.90;;;;;;5031186;28;20628;-75
2024/02/20 06:29:13;;;;;;;57.78;9.20;;;7.90;99.90;;;;;;5033167;28;20255;-74
2024/02/20 06:31:40;;;;;;;34.05;10.23;;;7.90;99.90;;;;;;5033003;28;20203;-74
2024/02/20 06:34:09;;;;;;;37.75;10.20;;;7.80;99.90;;;;;;5033589;28;20690;-74
2024/02/20 06:36:37;;;;;;;28.75;9.73;;;7.80;99.90;;;;;;5032651;28;20624;-74
2024/02/20 06:39:04;;;;;;;29.00;10.00;;;7.80;99.90;;;;;;5030473;28;20205;-76
2024/02/20 06:41:31;;;;;;;58.45;9.57;;;7.80;99.90;;;;;;5026611;28;20217;-73
2024/02/20 06:43:58;;;;;;;26.58;8.38;;;7.70;99.90;;;;;;5033303;28;20233;-74
2024/02/20 06:46:27;;;;;;;45.42;9.02;;;7.80;99.90;;;;;;5031996;28;20687;-74
2024/02/20 06:48:54;;;;;;;33.38;9.85;;;7.70;99.90;;;;;;5029346;28;20208;-71
2024/02/20 06:51:23;;;;;;;31.85;8.60;;;7.70;99.90;;;;;;5032922;28;20229;-74
2024/02/20 06:53:50;;;;;;;31.63;8.93;;;7.80;99.90;;;;;;5031973;28;20564;-77
2024/02/20 06:56:17;;;;;;;43.75;9.70;;;7.80;99.90;;;;;;5027024;28;20208;-75
2024/02/20 06:58:44;;;;;;;47.28;9.25;;;7.80;99.90;;;;;;5020604;28;20224;-75
2024/02/20 07:01:11;;;;;;;30.05;9.88;;;7.80;99.90;;;;;;5030506;28;20217;-73
2024/02/20 07:03:40;;;;;;;32.47;9.75;;;7.80;99.90;;;;;;5023592;28;20224;-73
2024/02/20 07:06:07;;;;;;;42.95;9.52;;;7.80;99.90;;;;;;5030393;28;20220;-74
2024/02/20 07:08:34;;;;;;;30.23;7.38;;;7.90;99.90;;;;;;5035692;28;20224;-72
2024/02/20 07:11:01;;;;;;;32.92;8.63;;;7.90;99.90;;;;;;5038579;28;20219;-75
2024/02/20 07:13:28;;;;;;;34.78;8.68;;;7.90;99.90;;;;;;5032331;28;20232;-73
2024/02/20 07:15:55;;;;;;;37.35;9.60;;;7.90;99.90;;;;;;5030761;28;20725;-75
2024/02/20 07:18:22;;;;;;;25.15;9.85;;;8.00;99.90;;;;;;5025596;28;20211;-72
2024/02/20 07:20:51;;;;;;;38.35;10.20;;;8.20;99.90;;;;;;5031875;28;20239;-76
2024/02/20 07:23:18;;;;;;;24.42;8.48;;;8.30;99.90;;;;;;5032061;28;20242;-74
2024/02/20 07:25:45;;;;;;;41.40;8.02;;;8.40;99.90;;;;;;5031345;28;20608;-73
2024/02/20 07:28:13;;;;;;;38.63;7.78;;;8.60;99.90;;;;;;5033500;28;20300;-73
2024/02/20 07:36:40;;;;;;;26.85;6.95;;;8.60;99.90;;;;;;4435325;26;20220;-72
2024/02/20 07:39:07;;;;;;;28.40;7.63;;;8.70;99.90;;;;;;5048272;28;20275;-73
2024/02/20 07:41:35;;;;;;;33.40;7.50;;;8.70;99.90;;;;;;5047113;28;20298;-73
2024/02/20 07:44:02;;;;;;;28.90;6.47;;;8.70;99.90;;;;;;5053131;28;20246;-72
2024/02/20 07:46:29;;;;;;;27.05;7.28;;;8.70;99.90;;;;;;5052828;28;20216;-72
2024/02/20 07:48:56;;;;;;;39.10;8.77;;;9.00;99.90;;;;;;5046610;28;20265;-72
2024/02/20 07:51:23;;;;;;;31.60;7.70;;;9.30;99.90;;;;;;5044782;28;20545;-72
2024/02/20 07:53:52;;;;;;;37.15;7.60;;;9.70;99.90;;;;;;5051383;28;20242;-70
2024/02/20 07:56:23;;;;;;;28.13;7.15;;;9.80;99.90;;;;;;5051229;28;20204;-71
2024/02/20 07:58:50;;;;;;;25.33;7.78;;;10.00;99.90;;;;;;5043151;28;20217;-72
2024/02/20 08:01:19;;;;;;;21.00;6.32;;;10.50;99.90;;;;;;5059704;28;20203;-72
2024/02/20 08:03:46;;;;;;;25.70;7.97;;;11.10;99.90;;;;;;5052563;28;20284;-71
2024/02/20 08:06:13;;;;;;;30.02;7.55;;;11.40;99.90;;;;;;5053567;28;20755;-72
2024/02/20 08:08:42;;;;;;;25.35;7.18;;;11.20;99.90;;;;;;5053480;28;20234;-73
2024/02/20 08:11:10;;;;;;;33.33;6.57;;;10.70;99.90;;;;;;5049447;28;20196;-71
2024/02/20 08:13:41;;;;;;;21.88;6.30;;;10.40;99.90;;;;;;5062680;28;20220;-72
2024/02/20 08:16:12;;;;;;;28.40;7.05;;;10.10;99.90;;;;;;5054060;28;20209;-71
2024/02/20 08:18:41;;;;;;;30.90;9.10;;;10.00;99.90;;;;;;5063293;28;20261;-73
2024/02/20 08:21:10;;;;;;;35.25;6.82;;;10.00;99.90;;;;;;5051699;28;20206;-72
2024/02/20 08:23:37;;;;;;;24.05;5.95;;;10.50;99.90;;;;;;5051128;28;20227;-70
2024/02/20 08:26:04;;;;;;;21.92;6.65;;;10.60;99.90;;;;;;5052675;28;20235;-73
2024/02/20 08:28:33;;;;;;;27.30;7.50;;;10.70;99.90;;;;;;5051102;28;20196;-74
2024/02/20 08:31:00;;;;;;;28.50;8.45;;;10.80;99.90;;;;;;5045383;28;20201;-73
2024/02/20 08:33:27;;;;;;;21.05;8.90;;;10.90;99.90;;;;;;5046588;28;20258;-72
2024/02/20 08:35:55;;;;;;;33.72;8.80;;;11.10;99.90;;;;;;5053663;28;20346;-73
2024/02/20 08:38:22;;;;;;;38.03;10.20;;;10.80;99.90;;;;;;5055343;28;20578;-74
2024/02/20 08:40:49;;;;;;;22.45;11.00;;;10.20;99.90;;;;;;5062772;28;20261;-73
2024/02/20 08:43:16;;;;;;;33.30;10.82;;;10.30;99.90;;;;;;5054365;28;20248;-69
2024/02/20 08:45:45;;;;;;;41.05;14.27;;;10.40;99.90;;;;;;5060640;28;20215;-71
2024/02/20 08:48:13;;;;;;;34.17;16.00;;;10.10;99.90;;;;;;5056258;28;20228;-72
2024/02/20 08:50:40;;;;;;;43.08;16.85;;;10.20;99.90;;;;;;5046361;28;20212;-72
2024/02/20 08:53:10;;;;;;;39.88;16.00;;;10.30;99.90;;;;;;5051756;28;20224;-71
2024/02/20 08:55:38;;;;;;;45.08;16.20;;;9.90;99.90;;;;;;5049532;28;20210;-73
2024/02/20 08:58:06;;;;;;;32.45;15.80;;;9.60;99.90;;;;;;5055678;28;20289;-72
2024/02/20 09:00:33;;;;;;;41.00;17.58;;;9.80;99.90;;;;;;5065041;28;20268;-71
2024/02/20 09:03:02;;;;;;;32.78;16.85;;;9.90;99.90;;;;;;5056654;28;20251;-71
2024/02/20 09:05:29;;;;;;;35.55;15.82;;;10.00;99.90;;;;;;5060501;28;20243;-71
2024/02/20 09:07:56;;;;;;;37.58;19.58;;;9.90;99.90;;;;;;5057379;28;20223;-71
2024/02/20 09:10:24;;;;;;;46.60;20.73;;;9.90;99.90;;;;;;5046838;28;20200;-73
2024/02/20 09:12:51;;;;;;;52.38;20.67;;;9.70;99.90;;;;;;5055700;28;20230;-71
2024/02/20 09:15:18;;;;;;;43.60;22.73;;;9.80;99.90;;;;;;5048880;28;20205;-72
2024/02/20 09:17:45;;;;;;;45.92;20.65;;;10.20;99.90;;;;;;5056096;28;20215;-72
2024/02/20 09:20:14;;;;;;;38.72;21.33;;;10.80;99.90;;;;;;5053444;28;20204;-71
2024/02/20 09:22:41;;;;;;;40.95;18.60;;;10.80;99.90;;;;;;5043110;28;20266;-72
2024/02/20 09:25:09;;;;;;;50.35;23.90;;;10.60;99.90;;;;;;5052433;28;20264;-72
2024/02/20 09:27:38;;;;;;;35.13;18.67;;;10.40;99.90;;;;;;5050108;28;20246;-73
2024/02/20 09:30:06;;;;;;;43.85;20.27;;;10.30;99.90;;;;;;5058381;28;20276;-72
2024/02/20 09:32:34;;;;;;;41.83;20.75;;;10.20;99.90;;;;;;5049604;28;20306;-73
2024/02/20 09:35:01;;;;;;;40.47;20.88;;;9.80;99.90;;;;;;5061824;28;20215;-74
2024/02/20 09:37:29;;;;;;;47.35;21.15;;;9.60;99.90;;;;;;5053642;28;20201;-71
2024/02/20 09:39:56;;;;;;;37.25;19.00;;;9.70;99.90;;;;;;5050320;28;20204;-71
2024/02/20 09:42:25;;;;;;;37.28;17.40;;;9.60;99.90;;;;;;5048595;28;20281;-70
2024/02/20 09:44:54;;;;;;;30.85;17.25;;;9.60;99.90;;;;;;5045444;28;20224;-73
2024/02/20 09:47:22;;;;;;;31.45;16.75;;;9.70;99.90;;;;;;5050449;28;20305;-74
2024/02/20 09:49:52;;;;;;;37.17;15.70;;;9.90;99.90;;;;;;5046939;28;20303;-73
2024/02/20 09:52:20;;;;;;;44.67;16.15;;;10.10;99.90;;;;;;5054853;28;20204;-71
2024/02/20 09:54:50;;;;;;;29.42;15.88;;;10.10;99.90;;;;;;5052833;28;20575;-74
2024/02/20 09:57:17;;;;;;;28.98;13.25;;;10.00;99.90;;;;;;5050768;28;20223;-72
2024/02/20 09:59:45;;;;;;;36.50;12.68;;;10.00;99.90;;;;;;5056447;28;20211;-74
2024/02/20 10:02:20;;;;;;;24.08;12.77;;;10.10;99.90;;;;;;5062873;28;20218;-74
2024/02/20 10:04:47;;;;;;;26.42;12.00;;;10.20;99.90;;;;;;5049646;28;20207;-71
2024/02/20 10:07:16;;;;;;;32.10;12.13;;;10.10;99.90;;;;;;5052879;28;20702;-74
2024/02/20 10:09:44;;;;;;;32.10;10.52;;;10.10;99.90;;;;;;5055221;28;20222;-72
2024/02/20 10:12:20;;;;;;;24.75;11.43;;;10.10;99.90;;;;;;5042727;28;20603;-73
2024/02/20 10:14:47;;;;;;;27.58;9.35;;;10.20;99.90;;;;;;5058243;28;20214;-73
2024/02/20 10:17:15;;;;;;;28.45;10.98;;;10.30;99.90;;;;;;5047958;28;20250;-74
2024/02/20 10:19:43;;;;;;;29.23;10.30;;;10.40;99.90;;;;;;5043557;28;20381;-71
2024/02/20 10:22:11;;;;;;;21.48;10.27;;;10.30;99.90;;;;;;5057682;28;20208;-73
2024/02/20 10:24:38;;;;;;;29.73;9.50;;;10.10;99.90;;;;;;5044726;28;20206;-72
2024/02/20 10:27:05;;;;;;;30.40;11.45;;;10.00;99.90;;;;;;5052861;28;20224;-74
2024/02/20 10:29:34;;;;;;;25.50;11.63;;;10.10;99.90;;;;;;5045966;28;20205;-73
2024/02/20 10:32:01;;;;;;;33.75;9.85;;;10.10;99.90;;;;;;5042854;28;20588;-73
2024/02/20 10:34:28;;;;;;;24.95;10.07;;;10.10;99.90;;;;;;5055521;28;20220;-72
2024/02/20 10:37:05;;;;;;;18.15;9.77;;;10.30;99.90;;;;;;5041580;28;20208;-75
2024/02/20 10:39:32;;;;;;;26.02;10.35;;;10.40;99.90;;;;;;5048165;28;20230;-71
2024/02/20 10:42:01;;;;;;;27.48;11.00;;;10.40;99.90;;;;;;5040320;28;20235;-72
2024/02/20 10:44:30;;;;;;;27.08;11.50;;;10.50;99.90;;;;;;5037110;28;20307;-70
2024/02/20 10:47:00;;;;;;;35.97;15.93;;;10.70;99.90;;;;;;5043788;28;20266;-72
2024/02/20 10:49:30;;;;;;;29.67;12.35;;;10.70;99.90;;;;;;5044573;28;20208;-73
2024/02/20 10:51:58;;;;;;;32.65;13.85;;;10.70;99.90;;;;;;5052247;28;20225;-72
2024/02/20 10:54:26;;;;;;;29.75;14.55;;;10.90;99.90;;;;;;5052020;28;20230;-69
2024/02/20 10:56:55;;;;;;;44.83;19.00;;;10.80;99.90;;;;;;5054540;28;20204;-68
2024/02/20 10:59:22;;;;;;;40.70;18.10;;;10.90;99.90;;;;;;5060535;28;20682;-69
2024/02/20 11:01:49;;;;;;;34.45;16.00;;;10.90;99.90;;;;;;5046480;28;20261;-73
2024/02/20 11:04:18;;;;;;;31.10;15.55;;;10.90;99.90;;;;;;5046775;28;20224;-74
2024/02/20 11:06:48;;;;;;;38.13;17.20;;;11.00;99.90;;;;;;5051706;28;20200;-73
2024/02/20 11:09:15;;;;;;;33.33;17.80;;;11.20;99.90;;;;;;5048423;28;20207;-72
2024/02/20 11:11:42;;;;;;;31.05;16.52;;;11.50;99.90;;;;;;5051064;28;20252;-72
2024/02/20 11:14:09;;;;;;;25.45;14.98;;;11.70;99.90;;;;;;5052553;28;20265;-72
2024/02/20 11:16:38;;;;;;;28.77;14.45;;;11.50;99.90;;;;;;5049774;28;20257;-74
2024/02/20 11:19:05;;;;;;;34.70;16.30;;;11.50;99.90;;;;;;5045621;28;20196;-72
2024/02/20 11:21:34;;;;;;;31.45;15.10;;;11.50;99.90;;;;;;5049205;28;20203;-73
2024/02/20 11:24:12;;;;;;;31.48;17.08;;;11.60;99.90;;;;;;5052393;28;20305;-72
2024/02/20 11:26:41;;;;;;;33.80;17.15;;;11.60;99.90;;;;;;5050525;28;20199;-71
2024/02/20 11:29:10;;;;;;;51.08;18.92;;;11.70;99.90;;;;;;5057946;28;20690;-72
2024/02/20 11:31:37;;;;;;;38.08;17.75;;;11.70;99.90;;;;;;5050462;28;20291;-71
2024/02/20 11:34:17;;;;;;;23.90;12.23;;;11.90;99.90;;;;;;5047204;28;20639;-72
2024/02/20 11:36:45;;;;;;;38.75;14.95;;;12.10;99.90;;;;;;5047330;28;20258;-71
2024/02/20 11:39:16;;;;;;;26.13;12.65;;;12.10;99.90;;;;;;5048360;28;20207;-70
2024/02/20 11:41:44;;;;;;;26.73;12.13;;;11.70;99.90;;;;;;5052034;28;20278;-71
2024/02/20 11:44:14;;;;;;;22.13;12.20;;;11.60;99.90;;;;;;5053722;28;20298;-72
2024/02/20 11:46:43;;;;;;;30.50;11.93;;;11.90;99.90;;;;;;5060895;28;20241;-72
2024/02/20 11:49:19;;;;;;;25.20;12.55;;;11.80;99.90;;;;;;5053033;28;20232;-72
2024/02/20 11:51:48;;;;;;;28.25;11.65;;;11.80;99.90;;;;;;5047184;28;20207;-72
2024/02/20 11:54:20;;;;;;;19.10;11.02;;;11.50;99.90;;;;;;5063631;28;20274;-71
2024/02/20 11:56:47;;;;;;;26.23;12.15;;;11.60;99.90;;;;;;5047845;28;20207;-71
2024/02/20 11:59:15;;;;;;;27.02;11.18;;;11.50;99.90;;;;;;5054493;28;20672;-71
2024/02/20 12:01:42;;;;;;;25.70;10.35;;;11.60;99.90;;;;;;5066122;28;20203;-72
2024/02/20 12:04:11;;;;;;;27.85;10.40;;;11.80;99.90;;;;;;5051970;28;20216;-71
2024/02/20 12:06:39;;;;;;;14.95;8.55;;;11.70;99.90;;;;;;5065396;28;20242;-72
2024/02/20 12:09:16;;;;;;;20.05;10.10;;;11.30;99.90;;;;;;5060643;28;20228;-73
2024/02/20 12:11:49;;;;;;;32.08;9.57;;;11.40;99.90;;;;;;5048095;28;20211;-71
2024/02/20 12:14:17;;;;;;;21.42;9.25;;;11.30;99.90;;;;;;5057666;28;20600;-71
2024/02/20 12:16:44;;;;;;;21.08;8.85;;;11.40;99.90;;;;;;5053535;28;20231;-71
2024/02/20 12:19:11;;;;;;;27.23;9.63;;;11.50;99.90;;;;;;5059363;28;20613;-74
2024/02/20 12:21:38;;;;;;;22.92;8.70;;;11.80;99.90;;;;;;5054971;28;20536;-71
2024/02/20 12:24:10;;;;;;;30.05;12.07;;;11.80;99.90;;;;;;5055158;28;20231;-73
2024/02/20 12:26:37;;;;;;;28.13;11.48;;;11.70;99.90;;;;;;5051713;28;20208;-74
2024/02/20 12:29:04;;;;;;;25.23;8.88;;;11.80;99.90;;;;;;5055915;28;20252;-72
2024/02/20 12:31:32;;;;;;;27.15;9.10;;;11.80;99.90;;;;;;5057077;28;20204;-74
2024/02/20 12:34:01;;;;;;;29.88;11.90;;;12.00;99.90;;;;;;5056425;28;20267;-72
2024/02/20 12:36:30;;;;;;;21.52;10.45;;;12.00;99.90;;;;;;5068533;28;20253;-72
2024/02/20 12:38:59;;;;;;;25.13;11.43;;;12.00;99.90;;;;;;5064262;28;20265;-70
2024/02/20 12:41:27;;;;;;;21.50;11.30;;;11.80;99.90;;;;;;5047920;28;20239;-73
2024/02/20 12:43:54;;;;;;;21.60;10.15;;;11.70;99.90;;;;;;5054458;28;20772;-72
2024/02/20 12:46:21;;;;;;;30.52;9.63;;;11.50;99.90;;;;;;5052256;28;20205;-71
2024/02/20 12:48:53;;;;;;;18.73;9.27;;;11.40;99.90;;;;;;5058724;28;20222;-70
2024/02/20 12:51:20;;;;;;;18.65;8.10;;;11.60;99.90;;;;;;5045941;28;20209;-73